Terminal Aerodrome Forecast
Issued by NWS Binghamton, NY

Home | Current Version | Previous Version | Text Only | Print | Product List | Glossary On
Versions: 1 2 3 4 5 6 7 8 9 10 11 12 13 14 15 16
000
FTUS41 KBGM 250534
TAFSYR
TAF
KSYR 250534Z 2506/2606 17010G20KT P6SM SCT200 WS020/19045KT
     FM251200 18017G30KT P6SM SCT025 BKN060
     FM251700 20013G23KT 3SM -SHRA BR OVC025
      TEMPO 2518/2520 2SM +SHRA BR OVC015
     FM252200 28011G19KT P6SM -RASN SCT015 OVC035
     FM260100 26014G26KT P6SM -SN BKN040=

USA.gov is the U.S. government's official web portal to all federal, state and local government web resources and services.